Terminal Aerodrome Forecast
Issued by NWS Houston/Galveston, TX

Home | Current Version | Previous Version | Text Only | Print | Product List | Glossary On
Versions: 1 2 3 4 5 6 7 8 9 10 11 12 13 14 15 16 17 18 19 20 21 22 23 24 25 26 27 28 29
000
FTUS44 KHGX 020904 AAB
TAFCLL
TAF AMD
KCLL 020904Z 0209/0306 18007KT P6SM SCT008 BKN015 BKN022
      TEMPO 0210/0212 5SM BR BKN007
     FM021400 18011KT P6SM SCT015 BKN025
     FM021800 17011KT P6SM SCT025 BKN050
     FM022100 18012KT P6SM VCSH BKN050
     FM030000 18011KT P6SM VCTS BKN040CB PROB30 0300/0304 TSRA=

USA.gov is the U.S. government's official web portal to all federal, state and local government web resources and services.